sensor_id;sensor_type;location;lat;lon;timestamp;temperature;humidity
41928;DHT22;27616;51.420;6.788;2022-07-11T00:02:08;18.70;99.90
41928;DHT22;27616;51.420;6.788;2022-07-11T00:04:35;18.70;99.90
41928;DHT22;27616;51.420;6.788;2022-07-11T00:07:02;18.70;99.90
41928;DHT22;27616;51.420;6.788;2022-07-11T00:09:28;18.70;99.90
41928;DHT22;27616;51.420;6.788;2022-07-11T00:11:55;18.70;99.90
41928;DHT22;27616;51.420;6.788;2022-07-11T00:14:21;18.70;99.90
41928;DHT22;27616;51.420;6.788;2022-07-11T00:16:48;18.70;99.90
41928;DHT22;27616;51.420;6.788;2022-07-11T00:19:14;18.60;99.90
41928;DHT22;27616;51.420;6.788;2022-07-11T00:21:40;18.60;99.90
41928;DHT22;27616;51.420;6.788;2022-07-11T00:24:06;18.60;99.90
41928;DHT22;27616;51.420;6.788;2022-07-11T00:26:33;18.60;99.90
41928;DHT22;27616;51.420;6.788;2022-07-11T00:28:59;18.60;99.90
41928;DHT22;27616;51.420;6.788;2022-07-11T00:31:25;18.50;99.90
41928;DHT22;27616;51.420;6.788;2022-07-11T00:33:51;18.50;99.90
41928;DHT22;27616;51.420;6.788;2022-07-11T00:36:16;18.50;99.90
41928;DHT22;27616;51.420;6.788;2022-07-11T00:38:42;18.50;99.90
41928;DHT22;27616;51.420;6.788;2022-07-11T00:41:08;18.50;99.90
41928;DHT22;27616;51.420;6.788;2022-07-11T00:43:35;18.50;99.90
41928;DHT22;27616;51.420;6.788;2022-07-11T00:46:06;18.50;99.90
41928;DHT22;27616;51.420;6.788;2022-07-11T00:48:32;18.40;99.90
41928;DHT22;27616;51.420;6.788;2022-07-11T00:50:59;18.40;99.90
41928;DHT22;27616;51.420;6.788;2022-07-11T00:53:26;18.40;99.90
41928;DHT22;27616;51.420;6.788;2022-07-11T00:55:53;18.40;99.90
41928;DHT22;27616;51.420;6.788;2022-07-11T00:58:19;18.40;99.90
41928;DHT22;27616;51.420;6.788;2022-07-11T01:00:45;18.40;99.90
41928;DHT22;27616;51.420;6.788;2022-07-11T01:03:11;18.40;99.90
41928;DHT22;27616;51.420;6.788;2022-07-11T01:05:37;18.40;99.90
41928;DHT22;27616;51.420;6.788;2022-07-11T01:08:03;18.40;99.90
41928;DHT22;27616;51.420;6.788;2022-07-11T01:10:31;18.40;99.90
41928;DHT22;27616;51.420;6.788;2022-07-11T01:12:58;18.40;99.90
41928;DHT22;27616;51.420;6.788;2022-07-11T01:15:24;18.40;99.90
41928;DHT22;27616;51.420;6.788;2022-07-11T01:17:50;18.30;99.90
41928;DHT22;27616;51.420;6.788;2022-07-11T01:20:22;18.30;99.90
41928;DHT22;27616;51.420;6.788;2022-07-11T01:25:24;18.30;99.90
41928;DHT22;27616;51.420;6.788;2022-07-11T01:28:04;18.30;99.90
41928;DHT22;27616;51.420;6.788;2022-07-11T01:30:30;18.30;99.90
41928;DHT22;27616;51.420;6.788;2022-07-11T01:32:57;18.30;99.90
41928;DHT22;27616;51.420;6.788;2022-07-11T01:35:23;18.30;99.90
41928;DHT22;27616;51.420;6.788;2022-07-11T01:37:50;18.30;99.90
41928;DHT22;27616;51.420;6.788;2022-07-11T01:40:16;18.30;99.90
41928;DHT22;27616;51.420;6.788;2022-07-11T01:42:42;18.30;99.90
41928;DHT22;27616;51.420;6.788;2022-07-11T01:45:12;18.30;99.90
41928;DHT22;27616;51.420;6.788;2022-07-11T01:47:39;18.30;99.90
41928;DHT22;27616;51.420;6.788;2022-07-11T01:50:06;18.30;99.90
41928;DHT22;27616;51.420;6.788;2022-07-11T01:52:32;18.30;99.90
41928;DHT22;27616;51.420;6.788;2022-07-11T01:54:57;18.30;99.90
41928;DHT22;27616;51.420;6.788;2022-07-11T01:57:23;18.20;99.90
41928;DHT22;27616;51.420;6.788;2022-07-11T01:59:49;18.30;99.90
41928;DHT22;27616;51.420;6.788;2022-07-11T02:02:15;18.30;99.90
41928;DHT22;27616;51.420;6.788;2022-07-11T02:04:41;18.20;99.90
41928;DHT22;27616;51.420;6.788;2022-07-11T02:07:07;18.30;99.90
41928;DHT22;27616;51.420;6.788;2022-07-11T02:09:33;18.20;99.90
41928;DHT22;27616;51.420;6.788;2022-07-11T02:11:59;18.30;99.90
41928;DHT22;27616;51.420;6.788;2022-07-11T02:14:24;18.30;99.90
41928;DHT22;27616;51.420;6.788;2022-07-11T02:16:50;18.30;99.90
41928;DHT22;27616;51.420;6.788;2022-07-11T02:19:16;18.30;99.90
41928;DHT22;27616;51.420;6.788;2022-07-11T02:21:42;18.30;99.90
41928;DHT22;27616;51.420;6.788;2022-07-11T02:24:08;18.30;99.90
41928;DHT22;27616;51.420;6.788;2022-07-11T02:26:34;18.30;99.90
41928;DHT22;27616;51.420;6.788;2022-07-11T02:29:00;18.30;99.90
41928;DHT22;27616;51.420;6.788;2022-07-11T02:31:26;18.30;99.90
41928;DHT22;27616;51.420;6.788;2022-07-11T02:33:52;18.20;99.90
41928;DHT22;27616;51.420;6.788;2022-07-11T02:36:18;18.20;99.90
41928;DHT22;27616;51.420;6.788;2022-07-11T02:38:43;18.20;99.90
41928;DHT22;27616;51.420;6.788;2022-07-11T02:41:09;18.20;99.90
41928;DHT22;27616;51.420;6.788;2022-07-11T02:43:35;18.30;99.90
41928;DHT22;27616;51.420;6.788;2022-07-11T02:46:01;18.20;99.90
41928;DHT22;27616;51.420;6.788;2022-07-11T02:48:27;18.20;99.90
41928;DHT22;27616;51.420;6.788;2022-07-11T02:50:53;18.20;99.90
41928;DHT22;27616;51.420;6.788;2022-07-11T02:53:19;18.20;99.90
41928;DHT22;27616;51.420;6.788;2022-07-11T02:55:44;18.10;99.90
41928;DHT22;27616;51.420;6.788;2022-07-11T02:58:11;18.10;99.90
41928;DHT22;27616;51.420;6.788;2022-07-11T03:00:36;18.10;99.90
41928;DHT22;27616;51.420;6.788;2022-07-11T03:03:02;18.10;99.90
41928;DHT22;27616;51.420;6.788;2022-07-11T03:05:29;18.10;99.90
41928;DHT22;27616;51.420;6.788;2022-07-11T03:07:54;18.20;99.90
41928;DHT22;27616;51.420;6.788;2022-07-11T03:10:20;18.10;99.90
41928;DHT22;27616;51.420;6.788;2022-07-11T03:12:49;18.10;99.90
41928;DHT22;27616;51.420;6.788;2022-07-11T03:15:15;18.10;99.90
41928;DHT22;27616;51.420;6.788;2022-07-11T03:17:40;18.10;99.90
41928;DHT22;27616;51.420;6.788;2022-07-11T03:20:07;18.10;99.90
41928;DHT22;27616;51.420;6.788;2022-07-11T03:22:33;18.10;99.90
41928;DHT22;27616;51.420;6.788;2022-07-11T03:24:58;18.10;99.90
41928;DHT22;27616;51.420;6.788;2022-07-11T03:27:26;18.10;99.90
41928;DHT22;27616;51.420;6.788;2022-07-11T03:29:51;18.10;99.90
41928;DHT22;27616;51.420;6.788;2022-07-11T03:32:17;18.10;99.90
41928;DHT22;27616;51.420;6.788;2022-07-11T03:34:46;18.10;99.90
41928;DHT22;27616;51.420;6.788;2022-07-11T03:37:32;18.10;99.90
41928;DHT22;27616;51.420;6.788;2022-07-11T03:39:58;18.10;99.90
41928;DHT22;27616;51.420;6.788;2022-07-11T03:42:24;18.00;99.90
41928;DHT22;27616;51.420;6.788;2022-07-11T03:44:50;18.10;99.90
41928;DHT22;27616;51.420;6.788;2022-07-11T03:47:17;18.00;99.90
41928;DHT22;27616;51.420;6.788;2022-07-11T03:49:43;18.00;99.90
41928;DHT22;27616;51.420;6.788;2022-07-11T03:52:09;18.00;99.90
41928;DHT22;27616;51.420;6.788;2022-07-11T03:54:34;18.00;99.90
41928;DHT22;27616;51.420;6.788;2022-07-11T03:57:00;18.00;99.90
41928;DHT22;27616;51.420;6.788;2022-07-11T03:59:26;18.00;99.90
41928;DHT22;27616;51.420;6.788;2022-07-11T04:01:51;18.00;99.90
41928;DHT22;27616;51.420;6.788;2022-07-11T04:04:17;18.00;99.90
41928;DHT22;27616;51.420;6.788;2022-07-11T04:06:43;18.00;99.90
41928;DHT22;27616;51.420;6.788;2022-07-11T04:09:09;18.00;99.90
41928;DHT22;27616;51.420;6.788;2022-07-11T04:11:36;18.00;99.90
41928;DHT22;27616;51.420;6.788;2022-07-11T04:14:02;18.00;99.90
41928;DHT22;27616;51.420;6.788;2022-07-11T04:16:27;18.00;99.90
41928;DHT22;27616;51.420;6.788;2022-07-11T04:18:53;18.00;99.90
41928;DHT22;27616;51.420;6.788;2022-07-11T04:21:19;18.00;99.90
41928;DHT22;27616;51.420;6.788;2022-07-11T04:23:45;18.00;99.90
41928;DHT22;27616;51.420;6.788;2022-07-11T04:26:11;18.00;99.90
41928;DHT22;27616;51.420;6.788;2022-07-11T04:28:36;18.00;99.90
41928;DHT22;27616;51.420;6.788;2022-07-11T04:31:02;18.00;99.90
41928;DHT22;27616;51.420;6.788;2022-07-11T04:33:28;18.00;99.90
41928;DHT22;27616;51.420;6.788;2022-07-11T04:35:54;18.10;99.90
41928;DHT22;27616;51.420;6.788;2022-07-11T04:38:20;18.10;99.90
41928;DHT22;27616;51.420;6.788;2022-07-11T04:40:47;18.10;99.90
41928;DHT22;27616;51.420;6.788;2022-07-11T04:43:14;18.10;99.90
41928;DHT22;27616;51.420;6.788;2022-07-11T04:45:40;18.10;99.90
41928;DHT22;27616;51.420;6.788;2022-07-11T04:48:06;18.10;99.90
41928;DHT22;27616;51.420;6.788;2022-07-11T04:50:31;18.10;99.90
41928;DHT22;27616;51.420;6.788;2022-07-11T04:52:57;18.10;99.90
41928;DHT22;27616;51.420;6.788;2022-07-11T04:55:23;18.10;99.90
41928;DHT22;27616;51.420;6.788;2022-07-11T04:57:49;18.10;99.90
41928;DHT22;27616;51.420;6.788;2022-07-11T05:00:15;18.00;99.90
41928;DHT22;27616;51.420;6.788;2022-07-11T05:02:41;18.00;99.90
41928;DHT22;27616;51.420;6.788;2022-07-11T05:05:07;18.10;99.90
41928;DHT22;27616;51.420;6.788;2022-07-11T05:07:33;18.10;99.90
41928;DHT22;27616;51.420;6.788;2022-07-11T05:09:58;18.00;99.90
41928;DHT22;27616;51.420;6.788;2022-07-11T05:12:24;18.00;99.90
41928;DHT22;27616;51.420;6.788;2022-07-11T05:14:50;18.00;99.90
41928;DHT22;27616;51.420;6.788;2022-07-11T05:17:16;18.00;99.90
41928;DHT22;27616;51.420;6.788;2022-07-11T05:19:41;18.00;99.90
41928;DHT22;27616;51.420;6.788;2022-07-11T05:22:07;18.00;99.90
41928;DHT22;27616;51.420;6.788;2022-07-11T05:24:33;18.00;99.90
41928;DHT22;27616;51.420;6.788;2022-07-11T05:26:59;18.00;99.90
41928;DHT22;27616;51.420;6.788;2022-07-11T05:29:24;18.00;99.90
41928;DHT22;27616;51.420;6.788;2022-07-11T05:31:50;18.00;99.90
41928;DHT22;27616;51.420;6.788;2022-07-11T05:34:19;18.00;99.90
41928;DHT22;27616;51.420;6.788;2022-07-11T05:36:46;18.00;99.90
41928;DHT22;27616;51.420;6.788;2022-07-11T05:39:11;18.00;99.90
41928;DHT22;27616;51.420;6.788;2022-07-11T05:41:37;18.00;99.90
41928;DHT22;27616;51.420;6.788;2022-07-11T05:44:03;18.00;99.90
41928;DHT22;27616;51.420;6.788;2022-07-11T05:46:29;18.00;99.90
41928;DHT22;27616;51.420;6.788;2022-07-11T05:48:54;18.00;99.90
41928;DHT22;27616;51.420;6.788;2022-07-11T05:51:20;18.00;99.90
41928;DHT22;27616;51.420;6.788;2022-07-11T05:53:46;18.00;99.90
41928;DHT22;27616;51.420;6.788;2022-07-11T05:56:12;18.00;99.90
41928;DHT22;27616;51.420;6.788;2022-07-11T05:58:37;18.00;99.90
41928;DHT22;27616;51.420;6.788;2022-07-11T06:01:03;18.00;99.90
41928;DHT22;27616;51.420;6.788;2022-07-11T06:03:29;18.00;99.90
41928;DHT22;27616;51.420;6.788;2022-07-11T06:05:55;18.00;99.90
41928;DHT22;27616;51.420;6.788;2022-07-11T06:08:20;18.00;99.90
41928;DHT22;27616;51.420;6.788;2022-07-11T06:11:05;18.00;99.90
41928;DHT22;27616;51.420;6.788;2022-07-11T06:13:31;18.00;99.90
41928;DHT22;27616;51.420;6.788;2022-07-11T06:15:56;17.90;99.90
41928;DHT22;27616;51.420;6.788;2022-07-11T06:18:22;17.90;99.90
41928;DHT22;27616;51.420;6.788;2022-07-11T06:20:49;17.90;99.90
41928;DHT22;27616;51.420;6.788;2022-07-11T06:23:15;17.90;99.90
41928;DHT22;27616;51.420;6.788;2022-07-11T06:25:40;18.00;99.90
41928;DHT22;27616;51.420;6.788;2022-07-11T06:28:06;17.90;99.90
41928;DHT22;27616;51.420;6.788;2022-07-11T06:30:32;17.90;99.90
41928;DHT22;27616;51.420;6.788;2022-07-11T06:32:59;17.90;99.90
41928;DHT22;27616;51.420;6.788;2022-07-11T06:35:24;17.90;99.90
41928;DHT22;27616;51.420;6.788;2022-07-11T06:37:50;17.90;99.90
41928;DHT22;27616;51.420;6.788;2022-07-11T06:40:16;17.90;99.90
41928;DHT22;27616;51.420;6.788;2022-07-11T06:42:43;17.90;99.90
41928;DHT22;27616;51.420;6.788;2022-07-11T06:45:09;17.90;99.90
41928;DHT22;27616;51.420;6.788;2022-07-11T06:47:35;17.90;99.90
41928;DHT22;27616;51.420;6.788;2022-07-11T06:50:02;17.90;99.90
41928;DHT22;27616;51.420;6.788;2022-07-11T06:52:27;17.90;99.90
41928;DHT22;27616;51.420;6.788;2022-07-11T06:54:53;17.90;99.90
41928;DHT22;27616;51.420;6.788;2022-07-11T06:57:19;17.80;99.90
41928;DHT22;27616;51.420;6.788;2022-07-11T06:59:45;17.70;99.90
41928;DHT22;27616;51.420;6.788;2022-07-11T07:02:10;17.70;99.90
41928;DHT22;27616;51.420;6.788;2022-07-11T07:04:36;17.70;99.90
41928;DHT22;27616;51.420;6.788;2022-07-11T07:07:02;17.70;99.90
41928;DHT22;27616;51.420;6.788;2022-07-11T07:09:28;17.80;99.90
41928;DHT22;27616;51.420;6.788;2022-07-11T07:11:54;17.90;99.90
41928;DHT22;27616;51.420;6.788;2022-07-11T07:14:21;17.90;99.90
41928;DHT22;27616;51.420;6.788;2022-07-11T07:16:47;17.90;99.90
41928;DHT22;27616;51.420;6.788;2022-07-11T07:19:13;17.90;99.90
41928;DHT22;27616;51.420;6.788;2022-07-11T07:21:39;17.90;99.90
41928;DHT22;27616;51.420;6.788;2022-07-11T07:24:05;17.90;99.90
41928;DHT22;27616;51.420;6.788;2022-07-11T07:26:31;17.90;99.90
41928;DHT22;27616;51.420;6.788;2022-07-11T07:28:57;17.90;99.90
41928;DHT22;27616;51.420;6.788;2022-07-11T07:31:23;17.90;99.90
41928;DHT22;27616;51.420;6.788;2022-07-11T07:33:49;17.90;99.90
41928;DHT22;27616;51.420;6.788;2022-07-11T07:36:15;17.90;99.90
41928;DHT22;27616;51.420;6.788;2022-07-11T07:38:43;17.90;99.90
41928;DHT22;27616;51.420;6.788;2022-07-11T07:41:13;17.90;99.90
41928;DHT22;27616;51.420;6.788;2022-07-11T07:43:39;17.90;99.90
41928;DHT22;27616;51.420;6.788;2022-07-11T07:46:04;17.90;99.90
41928;DHT22;27616;51.420;6.788;2022-07-11T07:48:30;17.90;99.90
41928;DHT22;27616;51.420;6.788;2022-07-11T07:50:56;18.00;99.90
41928;DHT22;27616;51.420;6.788;2022-07-11T07:53:22;18.10;99.90
41928;DHT22;27616;51.420;6.788;2022-07-11T07:55:47;18.10;99.90
41928;DHT22;27616;51.420;6.788;2022-07-11T07:58:15;18.20;99.90
41928;DHT22;27616;51.420;6.788;2022-07-11T08:00:40;18.20;99.90
41928;DHT22;27616;51.420;6.788;2022-07-11T08:03:24;18.20;99.90
41928;DHT22;27616;51.420;6.788;2022-07-11T08:05:50;18.30;99.90
41928;DHT22;27616;51.420;6.788;2022-07-11T08:08:16;18.30;99.90
41928;DHT22;27616;51.420;6.788;2022-07-11T08:10:42;18.20;99.90
41928;DHT22;27616;51.420;6.788;2022-07-11T08:13:07;18.20;99.90
41928;DHT22;27616;51.420;6.788;2022-07-11T08:15:33;18.30;99.90
41928;DHT22;27616;51.420;6.788;2022-07-11T08:17:59;18.30;99.90
41928;DHT22;27616;51.420;6.788;2022-07-11T08:20:25;18.30;99.90
41928;DHT22;27616;51.420;6.788;2022-07-11T08:22:50;18.30;99.90
41928;DHT22;27616;51.420;6.788;2022-07-11T08:25:16;18.20;99.90
41928;DHT22;27616;51.420;6.788;2022-07-11T08:27:42;18.30;99.90
41928;DHT22;27616;51.420;6.788;2022-07-11T08:30:08;18.30;99.90
41928;DHT22;27616;51.420;6.788;2022-07-11T08:32:38;18.30;99.90
41928;DHT22;27616;51.420;6.788;2022-07-11T08:35:05;18.30;99.90
41928;DHT22;27616;51.420;6.788;2022-07-11T08:37:31;18.40;99.90
41928;DHT22;27616;51.420;6.788;2022-07-11T08:39:56;18.40;99.90
41928;DHT22;27616;51.420;6.788;2022-07-11T08:42:23;18.40;99.90
41928;DHT22;27616;51.420;6.788;2022-07-11T08:44:52;18.40;99.90
41928;DHT22;27616;51.420;6.788;2022-07-11T08:47:18;18.40;99.90
41928;DHT22;27616;51.420;6.788;2022-07-11T08:49:44;18.40;99.90
41928;DHT22;27616;51.420;6.788;2022-07-11T08:52:11;18.40;99.90
41928;DHT22;27616;51.420;6.788;2022-07-11T08:54:38;18.40;99.90
41928;DHT22;27616;51.420;6.788;2022-07-11T08:57:04;18.40;99.90
41928;DHT22;27616;51.420;6.788;2022-07-11T08:59:34;18.40;99.90
41928;DHT22;27616;51.420;6.788;2022-07-11T09:02:02;18.40;99.90
41928;DHT22;27616;51.420;6.788;2022-07-11T09:04:29;18.50;99.90
41928;DHT22;27616;51.420;6.788;2022-07-11T09:06:56;18.50;99.90
41928;DHT22;27616;51.420;6.788;2022-07-11T09:09:21;18.60;99.90
41928;DHT22;27616;51.420;6.788;2022-07-11T09:11:57;18.60;99.90
41928;DHT22;27616;51.420;6.788;2022-07-11T09:14:24;18.70;99.90
41928;DHT22;27616;51.420;6.788;2022-07-11T09:16:55;18.70;99.90
41928;DHT22;27616;51.420;6.788;2022-07-11T09:19:25;18.80;99.90
41928;DHT22;27616;51.420;6.788;2022-07-11T09:27:46;18.80;99.90
41928;DHT22;27616;51.420;6.788;2022-07-11T09:32:54;18.80;99.90
41928;DHT22;27616;51.420;6.788;2022-07-11T09:35:23;18.80;99.90
41928;DHT22;27616;51.420;6.788;2022-07-11T09:37:49;18.80;99.90
41928;DHT22;27616;51.420;6.788;2022-07-11T09:40:16;18.80;99.90
41928;DHT22;27616;51.420;6.788;2022-07-11T09:42:57;18.80;99.90
41928;DHT22;27616;51.420;6.788;2022-07-11T09:45:24;18.80;99.90
41928;DHT22;27616;51.420;6.788;2022-07-11T09:47:54;18.80;99.90
41928;DHT22;27616;51.420;6.788;2022-07-11T09:50:22;18.80;99.90
41928;DHT22;27616;51.420;6.788;2022-07-11T09:53:18;18.80;99.90
41928;DHT22;27616;51.420;6.788;2022-07-11T09:55:45;18.80;99.90
41928;DHT22;27616;51.420;6.788;2022-07-11T09:58:15;18.80;99.90
41928;DHT22;27616;51.420;6.788;2022-07-11T10:00:42;18.90;99.90
41928;DHT22;27616;51.420;6.788;2022-07-11T10:03:11;18.80;99.90
41928;DHT22;27616;51.420;6.788;2022-07-11T10:05:37;18.90;99.90
41928;DHT22;27616;51.420;6.788;2022-07-11T10:08:04;18.90;99.90
41928;DHT22;27616;51.420;6.788;2022-07-11T10:10:32;18.90;99.90
41928;DHT22;27616;51.420;6.788;2022-07-11T10:12:59;18.90;99.90
41928;DHT22;27616;51.420;6.788;2022-07-11T10:20:45;18.90;99.90
41928;DHT22;27616;51.420;6.788;2022-07-11T10:31:24;19.10;99.90
41928;DHT22;27616;51.420;6.788;2022-07-11T10:34:04;19.10;99.90
41928;DHT22;27616;51.420;6.788;2022-07-11T10:36:40;19.10;99.90
41928;DHT22;27616;51.420;6.788;2022-07-11T10:39:19;19.20;99.90
41928;DHT22;27616;51.420;6.788;2022-07-11T10:41:59;19.20;99.90
41928;DHT22;27616;51.420;6.788;2022-07-11T10:44:28;19.30;99.90
41928;DHT22;27616;51.420;6.788;2022-07-11T10:46:54;19.30;99.90
41928;DHT22;27616;51.420;6.788;2022-07-11T10:49:43;19.30;99.90
41928;DHT22;27616;51.420;6.788;2022-07-11T10:52:21;19.40;99.90
41928;DHT22;27616;51.420;6.788;2022-07-11T10:57:23;19.30;99.90
41928;DHT22;27616;51.420;6.788;2022-07-11T11:00:02;19.30;99.90
41928;DHT22;27616;51.420;6.788;2022-07-11T11:02:29;19.30;99.90
41928;DHT22;27616;51.420;6.788;2022-07-11T11:04:59;19.30;99.90
41928;DHT22;27616;51.420;6.788;2022-07-11T11:07:43;19.30;99.90
41928;DHT22;27616;51.420;6.788;2022-07-11T11:15:49;19.30;99.90
41928;DHT22;27616;51.420;6.788;2022-07-11T11:28:53;19.30;99.90
41928;DHT22;27616;51.420;6.788;2022-07-11T11:31:19;19.40;99.90
41928;DHT22;27616;51.420;6.788;2022-07-11T11:33:46;19.40;99.90
41928;DHT22;27616;51.420;6.788;2022-07-11T11:36:17;19.40;99.90
41928;DHT22;27616;51.420;6.788;2022-07-11T11:38:44;19.40;99.90
41928;DHT22;27616;51.420;6.788;2022-07-11T11:41:10;19.40;99.90
41928;DHT22;27616;51.420;6.788;2022-07-11T11:43:43;19.40;99.90
41928;DHT22;27616;51.420;6.788;2022-07-11T11:46:11;19.40;99.90
41928;DHT22;27616;51.420;6.788;2022-07-11T11:48:38;19.50;99.90
41928;DHT22;27616;51.420;6.788;2022-07-11T11:53:49;19.40;99.90
41928;DHT22;27616;51.420;6.788;2022-07-11T11:56:27;19.50;99.90
41928;DHT22;27616;51.420;6.788;2022-07-11T12:01:38;19.50;99.90
41928;DHT22;27616;51.420;6.788;2022-07-11T12:04:06;19.50;99.90
41928;DHT22;27616;51.420;6.788;2022-07-11T12:06:40;19.50;99.90
41928;DHT22;27616;51.420;6.788;2022-07-11T12:09:11;19.50;99.90
41928;DHT22;27616;51.420;6.788;2022-07-11T12:11:38;19.50;99.90
41928;DHT22;27616;51.420;6.788;2022-07-11T12:14:07;19.50;99.90
41928;DHT22;27616;51.420;6.788;2022-07-11T12:16:34;19.60;99.90
41928;DHT22;27616;51.420;6.788;2022-07-11T12:19:10;19.60;99.90
41928;DHT22;27616;51.420;6.788;2022-07-11T12:21:38;19.60;99.90
41928;DHT22;27616;51.420;6.788;2022-07-11T12:24:06;19.70;99.90
41928;DHT22;27616;51.420;6.788;2022-07-11T12:26:33;19.80;99.90
41928;DHT22;27616;51.420;6.788;2022-07-11T12:29:06;19.80;99.90
41928;DHT22;27616;51.420;6.788;2022-07-11T12:31:55;19.90;99.90
41928;DHT22;27616;51.420;6.788;2022-07-11T12:34:22;20.00;99.90
41928;DHT22;27616;51.420;6.788;2022-07-11T12:36:48;19.90;99.90
41928;DHT22;27616;51.420;6.788;2022-07-11T12:39:25;19.90;99.90
41928;DHT22;27616;51.420;6.788;2022-07-11T12:41:52;19.90;99.90
41928;DHT22;27616;51.420;6.788;2022-07-11T12:44:31;19.90;99.90
41928;DHT22;27616;51.420;6.788;2022-07-11T12:47:17;19.90;99.90
41928;DHT22;27616;51.420;6.788;2022-07-11T12:49:48;19.90;99.90
41928;DHT22;27616;51.420;6.788;2022-07-11T12:52:14;19.90;99.90
41928;DHT22;27616;51.420;6.788;2022-07-11T12:54:41;19.90;99.90
41928;DHT22;27616;51.420;6.788;2022-07-11T12:57:07;19.90;99.90
41928;DHT22;27616;51.420;6.788;2022-07-11T12:59:34;19.90;99.90
41928;DHT22;27616;51.420;6.788;2022-07-11T13:02:03;19.90;99.90
41928;DHT22;27616;51.420;6.788;2022-07-11T13:04:34;19.90;99.90
41928;DHT22;27616;51.420;6.788;2022-07-11T13:10:05;19.90;99.90
41928;DHT22;27616;51.420;6.788;2022-07-11T13:12:31;19.90;99.90
41928;DHT22;27616;51.420;6.788;2022-07-11T13:15:03;19.90;99.90
41928;DHT22;27616;51.420;6.788;2022-07-11T13:20:13;19.90;99.90
41928;DHT22;27616;51.420;6.788;2022-07-11T13:22:40;19.80;99.90
41928;DHT22;27616;51.420;6.788;2022-07-11T13:25:07;19.80;99.90
41928;DHT22;27616;51.420;6.788;2022-07-11T13:27:33;19.80;99.90
41928;DHT22;27616;51.420;6.788;2022-07-11T13:29:59;19.80;99.90
41928;DHT22;27616;51.420;6.788;2022-07-11T13:32:25;19.80;99.90
41928;DHT22;27616;51.420;6.788;2022-07-11T13:34:51;19.80;99.90
41928;DHT22;27616;51.420;6.788;2022-07-11T13:37:17;19.80;99.90
41928;DHT22;27616;51.420;6.788;2022-07-11T13:39:43;19.80;99.90
41928;DHT22;27616;51.420;6.788;2022-07-11T13:42:08;19.80;99.90
41928;DHT22;27616;51.420;6.788;2022-07-11T13:44:35;19.80;99.90
41928;DHT22;27616;51.420;6.788;2022-07-11T13:47:01;19.80;99.90
41928;DHT22;27616;51.420;6.788;2022-07-11T13:49:26;19.80;99.90
41928;DHT22;27616;51.420;6.788;2022-07-11T13:51:52;19.80;99.90
41928;DHT22;27616;51.420;6.788;2022-07-11T13:54:18;19.80;99.90
41928;DHT22;27616;51.420;6.788;2022-07-11T13:56:44;19.80;99.90
41928;DHT22;27616;51.420;6.788;2022-07-11T13:59:10;19.80;99.90
41928;DHT22;27616;51.420;6.788;2022-07-11T14:01:35;19.80;99.90
41928;DHT22;27616;51.420;6.788;2022-07-11T14:04:01;19.80;99.90
41928;DHT22;27616;51.420;6.788;2022-07-11T14:06:27;19.80;99.90
41928;DHT22;27616;51.420;6.788;2022-07-11T14:08:52;19.90;99.90
41928;DHT22;27616;51.420;6.788;2022-07-11T14:11:18;19.90;99.90
41928;DHT22;27616;51.420;6.788;2022-07-11T14:13:44;19.90;99.90
41928;DHT22;27616;51.420;6.788;2022-07-11T14:16:10;19.90;99.90
41928;DHT22;27616;51.420;6.788;2022-07-11T14:18:35;19.90;99.90
41928;DHT22;27616;51.420;6.788;2022-07-11T14:21:01;19.90;99.90
41928;DHT22;27616;51.420;6.788;2022-07-11T14:23:27;19.90;99.90
41928;DHT22;27616;51.420;6.788;2022-07-11T14:25:52;19.90;99.90
41928;DHT22;27616;51.420;6.788;2022-07-11T14:28:18;20.00;99.90
41928;DHT22;27616;51.420;6.788;2022-07-11T14:30:45;19.90;99.90
41928;DHT22;27616;51.420;6.788;2022-07-11T14:33:10;20.00;99.90
41928;DHT22;27616;51.420;6.788;2022-07-11T14:35:36;19.90;99.90
41928;DHT22;27616;51.420;6.788;2022-07-11T14:38:02;20.00;99.90
41928;DHT22;27616;51.420;6.788;2022-07-11T14:40:28;20.00;99.90
41928;DHT22;27616;51.420;6.788;2022-07-11T14:42:54;20.00;99.90
41928;DHT22;27616;51.420;6.788;2022-07-11T14:45:20;20.00;99.90
41928;DHT22;27616;51.420;6.788;2022-07-11T14:47:45;20.00;99.90
41928;DHT22;27616;51.420;6.788;2022-07-11T14:50:11;20.00;99.90
41928;DHT22;27616;51.420;6.788;2022-07-11T14:52:40;20.00;99.90
41928;DHT22;27616;51.420;6.788;2022-07-11T14:55:06;20.10;99.90
41928;DHT22;27616;51.420;6.788;2022-07-11T14:57:32;20.10;99.90
41928;DHT22;27616;51.420;6.788;2022-07-11T14:59:58;20.20;99.90
41928;DHT22;27616;51.420;6.788;2022-07-11T15:02:24;20.40;99.90
41928;DHT22;27616;51.420;6.788;2022-07-11T15:05:08;20.60;99.90
41928;DHT22;27616;51.420;6.788;2022-07-11T15:07:34;20.70;99.90
41928;DHT22;27616;51.420;6.788;2022-07-11T15:10:18;21.00;99.90
41928;DHT22;27616;51.420;6.788;2022-07-11T15:13:03;21.20;99.90
41928;DHT22;27616;51.420;6.788;2022-07-11T15:15:28;21.50;99.90
41928;DHT22;27616;51.420;6.788;2022-07-11T15:17:55;21.50;99.90
41928;DHT22;27616;51.420;6.788;2022-07-11T15:20:21;21.60;99.90
41928;DHT22;27616;51.420;6.788;2022-07-11T15:22:47;21.60;99.90
41928;DHT22;27616;51.420;6.788;2022-07-11T15:25:13;21.80;99.90
41928;DHT22;27616;51.420;6.788;2022-07-11T15:27:40;22.00;99.40
41928;DHT22;27616;51.420;6.788;2022-07-11T15:30:07;22.20;99.00
41928;DHT22;27616;51.420;6.788;2022-07-11T15:32:34;22.30;98.90
41928;DHT22;27616;51.420;6.788;2022-07-11T15:35:01;22.30;98.70
41928;DHT22;27616;51.420;6.788;2022-07-11T15:37:26;22.20;99.10
41928;DHT22;27616;51.420;6.788;2022-07-11T15:39:52;22.00;99.10
41928;DHT22;27616;51.420;6.788;2022-07-11T15:42:18;21.80;99.50
41928;DHT22;27616;51.420;6.788;2022-07-11T15:44:43;21.60;99.80
41928;DHT22;27616;51.420;6.788;2022-07-11T15:47:09;21.50;99.90
41928;DHT22;27616;51.420;6.788;2022-07-11T15:49:35;21.40;99.90
41928;DHT22;27616;51.420;6.788;2022-07-11T15:52:00;21.30;99.90
41928;DHT22;27616;51.420;6.788;2022-07-11T15:54:26;21.30;99.90
41928;DHT22;27616;51.420;6.788;2022-07-11T15:56:52;21.20;99.90
41928;DHT22;27616;51.420;6.788;2022-07-11T15:59:18;21.30;99.90
41928;DHT22;27616;51.420;6.788;2022-07-11T16:01:43;21.20;99.90
41928;DHT22;27616;51.420;6.788;2022-07-11T16:04:09;21.20;99.90
41928;DHT22;27616;51.420;6.788;2022-07-11T16:06:36;21.20;99.90
41928;DHT22;27616;51.420;6.788;2022-07-11T16:09:01;21.10;99.90
41928;DHT22;27616;51.420;6.788;2022-07-11T16:11:28;21.10;99.90
41928;DHT22;27616;51.420;6.788;2022-07-11T16:13:53;21.10;99.90
41928;DHT22;27616;51.420;6.788;2022-07-11T16:16:23;21.00;99.90
41928;DHT22;27616;51.420;6.788;2022-07-11T16:18:53;21.00;99.90
41928;DHT22;27616;51.420;6.788;2022-07-11T16:21:21;21.00;99.90
41928;DHT22;27616;51.420;6.788;2022-07-11T16:23:47;20.90;99.90
41928;DHT22;27616;51.420;6.788;2022-07-11T16:26:13;20.90;99.90